Time;durP1;ratioP1;P1;durP2;ratioP2;P2;SDS_P1;SDS_P2;PMS_P1;PMS_P2;Temp;Humidity;BMP_temperature;BMP_pressure;BME280_temperature;BME280_humidity;BME280_pressure;Samples;Min_cycle;Max_cycle;Signal;HPM_P1;HPM_P2
2024/03/12 00:00:58;;;;;;;16.15;14.18;;;10.50;99.90;;;;;;2078655;28;20037;-65
2024/03/12 00:02:00;;;;;;;14.48;13.07;;;10.50;99.90;;;;;;2077698;28;20025;-65
2024/03/12 00:03:00;;;;;;;16.23;14.20;;;10.50;99.90;;;;;;2075852;28;20054;-66
2024/03/12 00:04:01;;;;;;;14.73;13.23;;;10.50;99.90;;;;;;2077724;28;20024;-65
2024/03/12 00:05:08;;;;;;;16.10;14.50;;;10.50;99.90;;;;;;2078324;28;20037;-65
2024/03/12 00:06:11;;;;;;;15.60;13.60;;;10.50;99.90;;;;;;2075775;28;20056;-65
2024/03/12 00:07:13;;;;;;;17.50;14.35;;;10.50;99.90;;;;;;2077673;28;20021;-66
2024/03/12 00:08:14;;;;;;;17.45;15.20;;;10.50;99.90;;;;;;2077439;28;20010;-66
2024/03/12 00:09:17;;;;;;;16.23;14.45;;;10.50;99.90;;;;;;2075946;28;20025;-65
2024/03/12 00:10:20;;;;;;;16.05;14.45;;;10.50;99.90;;;;;;2074518;28;20030;-65
2024/03/12 00:11:24;;;;;;;16.85;15.05;;;10.50;99.90;;;;;;2076896;28;20025;-65
2024/03/12 00:12:25;;;;;;;17.67;14.77;;;10.50;99.90;;;;;;2070104;28;20116;-66
2024/03/12 00:13:26;;;;;;;15.65;13.98;;;10.50;99.90;;;;;;2071228;28;20021;-66
2024/03/12 00:14:26;;;;;;;17.25;15.55;;;10.50;99.90;;;;;;2075557;28;20538;-65
2024/03/12 00:15:28;;;;;;;19.38;16.02;;;10.50;99.90;;;;;;2078205;28;20035;-65
2024/03/12 00:16:29;;;;;;;17.75;15.82;;;10.50;99.90;;;;;;2075920;28;20041;-65
2024/03/12 00:17:29;;;;;;;16.90;15.23;;;10.50;99.90;;;;;;2078656;28;20014;-65
2024/03/12 00:18:32;;;;;;;17.55;15.70;;;10.50;99.90;;;;;;2077664;28;20056;-66
2024/03/12 00:19:33;;;;;;;19.00;17.00;;;10.50;99.90;;;;;;2079334;28;20147;-65
2024/03/12 00:20:39;;;;;;;19.25;17.05;;;10.50;99.90;;;;;;2084276;28;20135;-67
2024/03/12 00:21:39;;;;;;;19.08;17.20;;;10.50;99.90;;;;;;2079738;28;20022;-66
2024/03/12 00:22:43;;;;;;;19.55;17.55;;;10.50;99.90;;;;;;2076859;28;20046;-65
2024/03/12 00:23:46;;;;;;;19.63;17.63;;;10.50;99.90;;;;;;2077550;28;20497;-66
2024/03/12 00:24:46;;;;;;;19.75;17.63;;;10.50;99.90;;;;;;2079243;28;20041;-65
2024/03/12 00:25:50;;;;;;;19.73;17.40;;;10.50;99.90;;;;;;2075635;28;20489;-66
2024/03/12 00:26:50;;;;;;;20.90;18.58;;;10.50;99.90;;;;;;2076665;28;20030;-65
2024/03/12 00:27:51;;;;;;;20.73;18.45;;;10.50;99.90;;;;;;2076897;28;20100;-66
2024/03/12 00:28:52;;;;;;;19.45;17.42;;;10.50;99.90;;;;;;2077071;28;20112;-66
2024/03/12 00:29:55;;;;;;;21.35;18.95;;;10.40;99.90;;;;;;2072987;28;20474;-65
2024/03/12 00:30:55;;;;;;;20.65;18.58;;;10.50;99.90;;;;;;2079267;28;20022;-65
2024/03/12 00:31:57;;;;;;;21.60;19.40;;;10.50;99.90;;;;;;2075607;28;20436;-64
2024/03/12 00:32:59;;;;;;;23.20;20.83;;;10.50;99.90;;;;;;2079731;28;20131;-66
2024/03/12 00:34:00;;;;;;;23.00;20.60;;;10.50;99.90;;;;;;2077398;28;20449;-65
2024/03/12 00:35:01;;;;;;;23.58;20.33;;;10.50;99.90;;;;;;2080004;28;20126;-66
2024/03/12 00:36:01;;;;;;;22.25;19.85;;;10.50;99.90;;;;;;2076110;28;20049;-66
2024/03/12 00:37:03;;;;;;;24.02;21.55;;;10.50;99.90;;;;;;2076898;28;20033;-67
2024/03/12 00:38:04;;;;;;;22.80;20.40;;;10.50;99.90;;;;;;2076550;28;20030;-66
2024/03/12 00:39:05;;;;;;;23.65;21.15;;;10.50;99.90;;;;;;2077417;28;20030;-65
2024/03/12 00:40:11;;;;;;;24.13;21.60;;;10.50;99.90;;;;;;2075955;28;20040;-65
2024/03/12 00:41:11;;;;;;;23.58;21.00;;;10.50;99.90;;;;;;2078408;28;20076;-66
2024/03/12 00:42:14;;;;;;;23.73;21.20;;;10.50;99.90;;;;;;2078400;28;20029;-66
2024/03/12 00:43:15;;;;;;;24.65;21.90;;;10.50;99.90;;;;;;2071863;28;20170;-65
2024/03/12 00:44:15;;;;;;;23.27;20.70;;;10.50;99.90;;;;;;2077883;28;20072;-65
2024/03/12 00:45:25;;;;;;;23.58;21.08;;;10.50;99.90;;;;;;2075394;28;20108;-65
2024/03/12 00:46:25;;;;;;;23.42;19.70;;;10.50;99.90;;;;;;2077942;28;20427;-67
2024/03/12 00:47:26;;;;;;;21.67;19.35;;;10.40;99.90;;;;;;2080719;28;20114;-65
2024/03/12 00:48:27;;;;;;;21.30;19.10;;;10.40;99.90;;;;;;2076600;28;20033;-64
2024/03/12 00:49:30;;;;;;;22.55;19.60;;;10.40;99.90;;;;;;2072166;28;20614;-65
2024/03/12 00:50:31;;;;;;;21.27;19.05;;;10.40;99.90;;;;;;2078514;28;20433;-65
2024/03/12 00:51:32;;;;;;;20.90;18.67;;;10.40;99.90;;;;;;2078922;28;20053;-65
2024/03/12 00:52:33;;;;;;;20.92;18.50;;;10.40;99.90;;;;;;2080019;28;20545;-65
2024/03/12 00:53:34;;;;;;;21.05;18.83;;;10.40;99.90;;;;;;2078273;28;20025;-64
2024/03/12 00:54:36;;;;;;;21.60;19.13;;;10.40;99.90;;;;;;2076167;28;20482;-67
2024/03/12 00:55:36;;;;;;;22.35;18.90;;;10.40;99.90;;;;;;2078433;28;20459;-65
2024/03/12 00:56:37;;;;;;;21.60;19.38;;;10.30;99.90;;;;;;2076486;28;20465;-65
2024/03/12 00:57:42;;;;;;;22.50;19.70;;;10.30;99.90;;;;;;2077480;28;20073;-66
2024/03/12 00:58:43;;;;;;;21.77;19.33;;;10.30;99.90;;;;;;2077957;28;20413;-65
2024/03/12 00:59:43;;;;;;;22.75;19.27;;;10.30;99.90;;;;;;2076239;28;20057;-65
2024/03/12 01:00:45;;;;;;;22.77;19.80;;;10.30;99.90;;;;;;2078550;28;20108;-65
2024/03/12 01:01:46;;;;;;;22.60;19.77;;;10.30;99.90;;;;;;2076053;28;20018;-66
2024/03/12 01:02:50;;;;;;;22.95;19.23;;;10.30;99.90;;;;;;2076728;28;20038;-65
2024/03/12 01:03:50;;;;;;;21.80;18.75;;;10.40;99.90;;;;;;2078414;28;20033;-66
2024/03/12 01:04:52;;;;;;;21.45;19.13;;;10.40;99.90;;;;;;2079535;28;20021;-66
2024/03/12 01:05:53;;;;;;;26.27;21.80;;;10.30;99.90;;;;;;2080854;28;20825;-66
2024/03/12 01:06:55;;;;;;;24.13;21.50;;;10.30;99.90;;;;;;2078791;28;20104;-65
2024/03/12 01:08:00;;;;;;;26.67;21.83;;;10.30;99.90;;;;;;2079467;28;20053;-65
2024/03/12 01:09:06;;;;;;;23.75;21.17;;;10.40;99.90;;;;;;2077912;28;20018;-65
2024/03/12 01:10:09;;;;;;;26.75;23.40;;;10.40;99.90;;;;;;2076307;28;20053;-65
2024/03/12 01:11:12;;;;;;;26.42;22.42;;;10.30;99.90;;;;;;2079576;28;20168;-66
2024/03/12 01:12:13;;;;;;;27.92;24.17;;;10.30;99.90;;;;;;2077102;28;20585;-65
2024/03/12 01:13:14;;;;;;;28.70;25.38;;;10.30;99.90;;;;;;2077836;28;20386;-66
2024/03/12 01:14:17;;;;;;;27.30;23.48;;;10.30;99.90;;;;;;2077873;28;20053;-65
2024/03/12 01:15:19;;;;;;;33.30;25.63;;;10.30;99.90;;;;;;2078061;28;20371;-65
2024/03/12 01:16:19;;;;;;;29.60;25.65;;;10.30;99.90;;;;;;2076361;28;20576;-65
2024/03/12 01:17:20;;;;;;;32.63;26.25;;;10.30;99.90;;;;;;2078643;28;20026;-65
2024/03/12 01:18:21;;;;;;;29.13;25.27;;;10.30;99.90;;;;;;2077432;28;20065;-65
2024/03/12 01:19:22;;;;;;;31.45;26.88;;;10.30;99.90;;;;;;2078243;28;20057;-65
2024/03/12 01:20:24;;;;;;;32.33;26.63;;;10.30;99.90;;;;;;2077276;28;20026;-65
2024/03/12 01:21:25;;;;;;;31.98;27.52;;;10.30;99.90;;;;;;2078779;28;20064;-66
2024/03/12 01:22:25;;;;;;;33.63;27.35;;;10.30;99.90;;;;;;2078673;28;20064;-65
2024/03/12 01:23:26;;;;;;;31.95;27.08;;;10.30;99.90;;;;;;2076409;28;20494;-66
2024/03/12 01:24:27;;;;;;;32.20;26.48;;;10.30;99.90;;;;;;2078106;28;20033;-65
2024/03/12 01:25:29;;;;;;;32.33;27.25;;;10.30;99.90;;;;;;2078301;28;20017;-65
2024/03/12 01:26:30;;;;;;;32.95;26.92;;;10.30;99.90;;;;;;2076846;28;20394;-65
2024/03/12 01:27:33;;;;;;;34.83;27.33;;;10.30;99.90;;;;;;2075568;28;20027;-65
2024/03/12 01:28:34;;;;;;;31.48;27.13;;;10.30;99.90;;;;;;2079616;28;20021;-65
2024/03/12 01:29:35;;;;;;;34.15;28.42;;;10.30;99.90;;;;;;2076773;28;20068;-65
2024/03/12 01:30:36;;;;;;;35.78;26.95;;;10.30;99.90;;;;;;2077612;28;20022;-65
2024/03/12 01:31:37;;;;;;;34.58;28.50;;;10.30;99.90;;;;;;2078550;28;20117;-65
2024/03/12 01:32:38;;;;;;;35.20;28.15;;;10.20;99.90;;;;;;2074981;28;20040;-65
2024/03/12 01:33:39;;;;;;;33.75;27.92;;;10.30;99.90;;;;;;2078507;28;20025;-65
2024/03/12 01:34:42;;;;;;;36.45;28.60;;;10.20;99.90;;;;;;2080020;28;20035;-65
2024/03/12 01:35:46;;;;;;;37.30;29.75;;;10.20;99.90;;;;;;2074929;28;20021;-66
2024/03/12 01:36:47;;;;;;;35.75;28.05;;;10.30;99.90;;;;;;2078874;28;20026;-65
2024/03/12 01:37:51;;;;;;;36.17;28.17;;;10.30;99.90;;;;;;2076032;28;20034;-65
2024/03/12 01:38:54;;;;;;;36.40;28.52;;;10.30;99.90;;;;;;2076594;28;20046;-65
2024/03/12 01:39:55;;;;;;;34.65;27.77;;;10.30;99.90;;;;;;2077705;28;20028;-67
2024/03/12 01:40:56;;;;;;;36.28;29.15;;;10.30;99.90;;;;;;2078252;28;20060;-65
2024/03/12 01:41:58;;;;;;;35.45;28.63;;;10.30;99.90;;;;;;2077680;28;20127;-65
2024/03/12 01:43:01;;;;;;;40.03;28.15;;;10.30;99.90;;;;;;2072954;28;20033;-64
2024/03/12 01:44:06;;;;;;;35.85;27.67;;;10.30;99.90;;;;;;2066951;28;20042;-66
2024/03/12 01:45:07;;;;;;;34.67;27.77;;;10.30;99.90;;;;;;2076808;28;20014;-65
2024/03/12 01:46:11;;;;;;;36.03;28.83;;;10.30;99.90;;;;;;2078800;28;20076;-66
2024/03/12 01:47:13;;;;;;;35.53;28.75;;;10.30;99.90;;;;;;2079128;28;20029;-65
2024/03/12 01:48:15;;;;;;;35.65;29.77;;;10.30;99.90;;;;;;2077284;28;20149;-65
2024/03/12 01:49:17;;;;;;;35.42;28.60;;;10.30;99.90;;;;;;2079211;28;20024;-65
2024/03/12 01:50:19;;;;;;;34.85;27.38;;;10.30;99.90;;;;;;2078794;28;20032;-65
2024/03/12 01:51:20;;;;;;;32.80;27.08;;;10.30;99.90;;;;;;2075935;28;20531;-65
2024/03/12 01:52:23;;;;;;;34.55;28.40;;;10.30;99.90;;;;;;2077052;28;20068;-65
2024/03/12 01:53:23;;;;;;;37.05;29.20;;;10.40;99.90;;;;;;2077057;28;20032;-66
2024/03/12 01:54:24;;;;;;;34.75;28.15;;;10.40;99.90;;;;;;2077648;28;20032;-65
2024/03/12 01:55:25;;;;;;;36.25;27.75;;;10.30;99.90;;;;;;2080349;28;20030;-66
2024/03/12 01:56:25;;;;;;;34.55;28.08;;;10.30;99.90;;;;;;2077662;28;20094;-65
2024/03/12 01:57:26;;;;;;;36.15;29.02;;;10.30;99.90;;;;;;2078689;28;20033;-66
2024/03/12 01:58:32;;;;;;;36.30;28.20;;;10.30;99.90;;;;;;2078684;28;20290;-65
2024/03/12 01:59:34;;;;;;;37.60;29.52;;;10.30;99.90;;;;;;2078011;28;20081;-66
2024/03/12 02:00:35;;;;;;;38.15;29.70;;;10.30;99.90;;;;;;2076953;28;20024;-66
2024/03/12 02:01:36;;;;;;;37.88;30.50;;;10.30;99.90;;;;;;2078658;28;20017;-66
2024/03/12 02:02:37;;;;;;;37.88;29.70;;;10.30;99.90;;;;;;2076891;28;20038;-65
2024/03/12 02:03:38;;;;;;;38.75;31.13;;;10.30;99.90;;;;;;2069134;28;20034;-65
2024/03/12 02:04:39;;;;;;;38.13;29.98;;;10.30;99.90;;;;;;2069616;28;20093;-65
2024/03/12 02:05:41;;;;;;;40.97;31.17;;;10.30;99.90;;;;;;2077307;28;20053;-65
2024/03/12 02:06:41;;;;;;;38.42;30.05;;;10.30;99.90;;;;;;2078791;28;20022;-65
2024/03/12 02:07:50;;;;;;;40.08;31.10;;;10.30;99.90;;;;;;2078370;28;20022;-66
2024/03/12 02:08:52;;;;;;;42.90;33.17;;;10.30;99.90;;;;;;2079041;28;20108;-65
2024/03/12 02:09:53;;;;;;;43.22;33.80;;;10.30;99.90;;;;;;2079400;28;20039;-65
2024/03/12 02:10:54;;;;;;;45.42;33.33;;;10.20;99.90;;;;;;2078508;28;20021;-65
2024/03/12 02:11:54;;;;;;;43.75;34.10;;;10.20;99.90;;;;;;2077829;28;20034;-66
2024/03/12 02:12:56;;;;;;;46.70;34.80;;;10.20;99.90;;;;;;2077044;28;20403;-65
2024/03/12 02:13:57;;;;;;;50.20;36.40;;;10.20;99.90;;;;;;2078758;28;20079;-65
2024/03/12 02:15:03;;;;;;;42.72;33.47;;;10.20;99.90;;;;;;2077148;28;20029;-66
2024/03/12 02:16:05;;;;;;;44.47;34.88;;;10.20;99.90;;;;;;2077587;28;20022;-65
2024/03/12 02:17:06;;;;;;;46.47;35.33;;;10.20;99.90;;;;;;2075541;28;20084;-66
2024/03/12 02:18:08;;;;;;;49.60;36.97;;;10.20;99.90;;;;;;2074376;28;20108;-65
2024/03/12 02:19:09;;;;;;;47.17;36.80;;;10.20;99.90;;;;;;2078721;28;20041;-65
2024/03/12 02:20:10;;;;;;;46.92;35.95;;;10.20;99.90;;;;;;2076551;28;20069;-65
2024/03/12 02:21:10;;;;;;;49.67;37.15;;;10.20;99.90;;;;;;2076719;28;20017;-65
2024/03/12 02:22:13;;;;;;;47.67;37.15;;;10.20;99.90;;;;;;2076933;28;20603;-66
2024/03/12 02:23:14;;;;;;;50.97;37.50;;;10.20;99.90;;;;;;2076811;28;20073;-66
2024/03/12 02:24:17;;;;;;;55.72;38.45;;;10.20;99.90;;;;;;2068813;28;20384;-64
2024/03/12 02:25:18;;;;;;;55.35;39.83;;;10.20;99.90;;;;;;2068670;28;20030;-65
2024/03/12 02:26:19;;;;;;;56.17;41.55;;;10.20;99.90;;;;;;2075648;28;20053;-66
2024/03/12 02:27:19;;;;;;;56.88;42.00;;;10.10;99.90;;;;;;2077287;28;20032;-65
2024/03/12 02:28:20;;;;;;;59.33;42.75;;;10.10;99.90;;;;;;2074804;28;20560;-65
2024/03/12 02:29:20;;;;;;;58.63;42.80;;;10.10;99.90;;;;;;2079063;28;20561;-65
2024/03/12 02:30:21;;;;;;;58.63;43.53;;;10.10;99.90;;;;;;2078562;28;20100;-65
2024/03/12 02:31:21;;;;;;;59.50;43.58;;;10.10;99.90;;;;;;2075959;28;20030;-65
2024/03/12 02:32:23;;;;;;;53.22;40.83;;;10.10;99.90;;;;;;2075913;28;20103;-66
2024/03/12 02:33:23;;;;;;;61.53;44.53;;;10.10;99.90;;;;;;2078694;28;20021;-65
2024/03/12 02:34:24;;;;;;;59.83;44.28;;;10.10;99.90;;;;;;2076725;28;20113;-65
2024/03/12 02:35:25;;;;;;;58.45;43.83;;;10.20;99.90;;;;;;2076508;28;20041;-65
2024/03/12 02:36:25;;;;;;;53.88;41.65;;;10.10;99.90;;;;;;2076936;28;20033;-67
2024/03/12 02:37:26;;;;;;;57.90;44.25;;;10.10;99.90;;;;;;2076221;28;20036;-65
2024/03/12 02:38:27;;;;;;;59.72;42.83;;;10.10;99.90;;;;;;2075769;28;20045;-65
2024/03/12 02:39:28;;;;;;;60.05;44.08;;;10.10;99.90;;;;;;2069430;28;20036;-65
2024/03/12 02:40:28;;;;;;;60.28;44.63;;;10.10;99.90;;;;;;2070224;28;20113;-65
2024/03/12 02:41:31;;;;;;;59.85;43.90;;;10.10;99.90;;;;;;2078469;28;20033;-65
2024/03/12 02:42:31;;;;;;;58.63;42.92;;;10.10;99.90;;;;;;2076636;28;20455;-65
2024/03/12 02:43:32;;;;;;;59.00;44.72;;;10.10;99.90;;;;;;2078009;28;20120;-66
2024/03/12 02:44:32;;;;;;;61.25;44.03;;;10.10;99.90;;;;;;2078367;28;20108;-65
2024/03/12 02:45:33;;;;;;;59.83;43.58;;;10.10;99.90;;;;;;2078166;28;20033;-65
2024/03/12 02:46:34;;;;;;;54.35;40.47;;;10.10;99.90;;;;;;2077919;28;20478;-65
2024/03/12 02:47:34;;;;;;;58.88;44.47;;;10.10;99.90;;;;;;2075973;28;20579;-65
2024/03/12 02:48:36;;;;;;;59.70;42.35;;;10.10;99.90;;;;;;2076916;28;20152;-65
2024/03/12 02:49:36;;;;;;;57.50;42.75;;;10.10;99.90;;;;;;2077714;28;20052;-65
2024/03/12 02:50:37;;;;;;;53.95;40.97;;;10.20;99.90;;;;;;2077969;28;20722;-65
2024/03/12 02:51:37;;;;;;;56.13;42.17;;;10.10;99.90;;;;;;2077908;28;20026;-65
2024/03/12 02:52:38;;;;;;;58.58;43.42;;;10.10;99.90;;;;;;2076699;28;20502;-65
2024/03/12 02:53:38;;;;;;;57.53;43.00;;;10.10;99.90;;;;;;2075718;28;20037;-65
2024/03/12 02:54:41;;;;;;;58.67;43.08;;;10.20;99.90;;;;;;2081226;28;20045;-66
2024/03/12 02:55:42;;;;;;;61.45;43.05;;;10.20;99.90;;;;;;2078697;28;20021;-65
2024/03/12 02:56:42;;;;;;;54.95;41.25;;;10.20;99.90;;;;;;2077835;28;20034;-68
2024/03/12 02:57:43;;;;;;;56.97;42.00;;;10.20;99.90;;;;;;2077636;28;20033;-66
2024/03/12 02:58:43;;;;;;;55.78;42.00;;;10.20;99.90;;;;;;2075927;28;20032;-66
2024/03/12 02:59:44;;;;;;;55.55;40.53;;;10.20;99.90;;;;;;2078211;28;20036;-66
2024/03/12 03:00:45;;;;;;;54.08;41.97;;;10.20;99.90;;;;;;2078318;28;20520;-67
2024/03/12 03:01:50;;;;;;;55.33;41.75;;;10.20;99.90;;;;;;2077952;28;20055;-65
2024/03/12 03:02:54;;;;;;;57.15;42.03;;;10.20;99.90;;;;;;2077231;28;20036;-66
2024/03/12 03:03:57;;;;;;;57.15;42.38;;;10.20;99.90;;;;;;2078042;28;20359;-65
2024/03/12 03:04:58;;;;;;;57.42;42.65;;;10.20;99.90;;;;;;2077968;28;20398;-65
2024/03/12 03:05:58;;;;;;;57.80;43.35;;;10.20;99.90;;;;;;2079338;28;20025;-66
2024/03/12 03:07:00;;;;;;;54.90;42.47;;;10.20;99.90;;;;;;2078872;28;20462;-65
2024/03/12 03:08:00;;;;;;;54.00;40.20;;;10.20;99.90;;;;;;2078364;28;20144;-66
2024/03/12 03:09:02;;;;;;;51.22;41.00;;;10.20;99.90;;;;;;2075890;28;20064;-65
2024/03/12 03:10:03;;;;;;;51.60;40.33;;;10.20;99.90;;;;;;2077035;28;20021;-66
2024/03/12 03:11:07;;;;;;;51.35;39.53;;;10.20;99.90;;;;;;2078587;28;20026;-66
2024/03/12 03:12:07;;;;;;;50.22;39.80;;;10.20;99.90;;;;;;2078529;28;20331;-65
2024/03/12 03:13:08;;;;;;;53.88;41.95;;;10.20;99.90;;;;;;2077466;28;20025;-66
2024/03/12 03:14:08;;;;;;;50.85;40.00;;;10.20;99.90;;;;;;2076750;28;20557;-66
2024/03/12 03:15:11;;;;;;;51.10;40.22;;;10.20;99.90;;;;;;2074759;28;20037;-66
2024/03/12 03:16:12;;;;;;;50.10;38.45;;;10.20;99.90;;;;;;2077867;28;20479;-65
2024/03/12 03:17:12;;;;;;;52.25;41.22;;;10.20;99.90;;;;;;2077274;28;20029;-66
2024/03/12 03:18:13;;;;;;;55.78;42.58;;;10.20;99.90;;;;;;2078579;28;20115;-65
2024/03/12 03:19:14;;;;;;;54.92;41.75;;;10.20;99.90;;;;;;2078157;28;20466;-66
2024/03/12 03:20:15;;;;;;;56.80;43.88;;;10.20;99.90;;;;;;2078560;28;20786;-66
2024/03/12 03:21:18;;;;;;;59.25;44.90;;;10.20;99.90;;;;;;2078471;28;20059;-65
2024/03/12 03:22:19;;;;;;;61.65;44.00;;;10.20;99.90;;;;;;2076427;28;20096;-66
2024/03/12 03:23:19;;;;;;;58.42;44.38;;;10.20;99.90;;;;;;2077655;28;20057;-66
2024/03/12 03:24:20;;;;;;;58.42;43.85;;;10.20;99.90;;;;;;2078941;28;20026;-66
2024/03/12 03:25:21;;;;;;;62.22;46.47;;;10.20;99.90;;;;;;2077689;28;20057;-65
2024/03/12 03:26:22;;;;;;;64.20;45.72;;;10.20;99.90;;;;;;2075358;28;20056;-66
2024/03/12 03:27:22;;;;;;;64.32;45.17;;;10.10;99.90;;;;;;2078766;28;20025;-66
2024/03/12 03:28:23;;;;;;;64.88;45.47;;;10.10;99.90;;;;;;2077160;28;20021;-65
2024/03/12 03:29:31;;;;;;;66.55;46.55;;;10.10;99.90;;;;;;2076913;28;20496;-65
2024/03/12 03:30:31;;;;;;;65.63;43.40;;;10.10;99.90;;;;;;2075499;28;20052;-66
2024/03/12 03:31:32;;;;;;;69.57;46.40;;;10.10;99.90;;;;;;2076407;28;20021;-65
2024/03/12 03:32:35;;;;;;;64.70;46.47;;;10.10;99.90;;;;;;2077051;28;20026;-65
2024/03/12 03:33:35;;;;;;;67.60;47.00;;;10.10;99.90;;;;;;2077423;28;20068;-66
2024/03/12 03:34:37;;;;;;;68.32;47.17;;;10.10;99.90;;;;;;2078925;28;20048;-65
2024/03/12 03:35:38;;;;;;;73.93;49.50;;;10.20;99.90;;;;;;2075619;28;20029;-65
2024/03/12 03:36:39;;;;;;;68.25;46.97;;;10.10;99.90;;;;;;2077641;28;20493;-65
2024/03/12 03:37:42;;;;;;;68.88;46.88;;;10.10;99.90;;;;;;2077705;28;20060;-66
2024/03/12 03:38:43;;;;;;;68.82;46.83;;;10.10;99.90;;;;;;2076692;28;20817;-66
2024/03/12 03:39:43;;;;;;;65.03;45.55;;;10.10;99.90;;;;;;2075831;28;20034;-64
2024/03/12 03:40:44;;;;;;;68.97;46.25;;;10.10;99.90;;;;;;2077896;28;20025;-65
2024/03/12 03:41:44;;;;;;;68.32;47.58;;;10.10;99.90;;;;;;2076518;28;20176;-65
2024/03/12 03:42:45;;;;;;;64.35;44.92;;;10.10;99.90;;;;;;2075559;28;20076;-67
2024/03/12 03:43:45;;;;;;;71.03;46.08;;;10.10;99.90;;;;;;2077167;28;20405;-65
2024/03/12 03:44:46;;;;;;;73.40;47.20;;;10.10;99.90;;;;;;2075641;28;20072;-65
2024/03/12 03:45:47;;;;;;;58.88;43.67;;;10.10;99.90;;;;;;2076966;28;20141;-65
2024/03/12 03:46:48;;;;;;;65.88;44.78;;;10.10;99.90;;;;;;2074592;28;20026;-65
2024/03/12 03:47:49;;;;;;;70.50;44.75;;;10.10;99.90;;;;;;2077577;28;20420;-65
2024/03/12 03:48:50;;;;;;;68.22;46.78;;;10.10;99.90;;;;;;2076927;28;20064;-65
2024/03/12 03:49:52;;;;;;;67.40;44.83;;;10.10;99.90;;;;;;2077742;28;20100;-65
2024/03/12 03:50:53;;;;;;;61.00;43.65;;;10.10;99.90;;;;;;2076844;28;20781;-65
2024/03/12 03:51:53;;;;;;;68.47;44.67;;;10.10;99.90;;;;;;2077597;28;20021;-65
2024/03/12 03:52:54;;;;;;;60.38;43.08;;;10.10;99.90;;;;;;2076763;28;20547;-65
2024/03/12 03:53:55;;;;;;;59.47;44.03;;;10.10;99.90;;;;;;2076861;28;20030;-65
2024/03/12 03:54:55;;;;;;;62.10;43.13;;;10.10;99.90;;;;;;2074902;28;20382;-65
2024/03/12 03:55:56;;;;;;;59.00;42.08;;;10.00;99.90;;;;;;2076070;28;20056;-66
2024/03/12 03:56:56;;;;;;;58.90;42.38;;;10.00;99.90;;;;;;2076298;28;20032;-65
2024/03/12 03:57:57;;;;;;;61.58;42.60;;;10.10;99.90;;;;;;2076919;28;20060;-65
2024/03/12 03:59:00;;;;;;;58.85;40.97;;;10.10;99.90;;;;;;2077226;28;20117;-65
2024/03/12 04:00:12;;;;;;;61.35;42.42;;;10.10;99.90;;;;;;2076782;28;20024;-65
2024/03/12 04:01:13;;;;;;;59.33;40.72;;;10.00;99.90;;;;;;2077748;28;20034;-66
2024/03/12 04:02:14;;;;;;;59.88;41.60;;;10.00;99.90;;;;;;2076113;28;20025;-65
2024/03/12 04:03:14;;;;;;;55.08;38.58;;;10.00;99.90;;;;;;2077574;28;20111;-65
2024/03/12 04:04:15;;;;;;;55.55;39.90;;;10.00;99.90;;;;;;2076646;28;20075;-65
2024/03/12 04:05:16;;;;;;;58.17;39.70;;;10.00;99.90;;;;;;2076302;28;20037;-67
2024/03/12 04:06:21;;;;;;;57.45;40.08;;;10.00;99.90;;;;;;2077400;28;20530;-65
2024/03/12 04:07:21;;;;;;;55.40;38.90;;;10.00;99.90;;;;;;2077620;28;20038;-66
2024/03/12 04:08:22;;;;;;;49.95;38.92;;;10.00;99.90;;;;;;2076078;28;20030;-65
2024/03/12 04:09:26;;;;;;;54.67;38.75;;;10.00;99.90;;;;;;2076941;28;20022;-65
2024/03/12 04:10:26;;;;;;;56.53;40.55;;;10.00;99.90;;;;;;2076485;28;20037;-65
2024/03/12 04:11:27;;;;;;;52.67;38.50;;;10.00;99.90;;;;;;2078149;28;20033;-65
2024/03/12 04:12:28;;;;;;;52.97;37.55;;;10.00;99.90;;;;;;2074774;28;20485;-66
2024/03/12 04:13:28;;;;;;;51.90;38.30;;;10.00;99.90;;;;;;2078406;28;20404;-65
2024/03/12 04:14:29;;;;;;;51.65;38.42;;;10.00;99.90;;;;;;2080864;28;20065;-66
2024/03/12 04:15:29;;;;;;;50.70;37.58;;;10.00;99.90;;;;;;2079241;28;20021;-66
2024/03/12 04:16:30;;;;;;;54.38;38.50;;;10.00;99.90;;;;;;2077743;28;20025;-65
2024/03/12 04:17:31;;;;;;;51.03;37.17;;;10.10;99.90;;;;;;2078661;28;20025;-65
2024/03/12 04:18:33;;;;;;;48.55;38.08;;;10.00;99.90;;;;;;2077797;28;20036;-65
2024/03/12 04:19:35;;;;;;;52.80;37.10;;;10.00;99.90;;;;;;2075108;28;20088;-65
2024/03/12 04:20:35;;;;;;;51.15;38.55;;;10.10;99.90;;;;;;2075278;28;20026;-65
2024/03/12 04:21:36;;;;;;;53.30;38.22;;;10.00;99.90;;;;;;2070293;28;20032;-65
2024/03/12 04:22:38;;;;;;;49.50;37.03;;;10.10;99.90;;;;;;2073383;28;20075;-66
2024/03/12 04:23:38;;;;;;;51.58;37.72;;;10.10;99.90;;;;;;2078751;28;20117;-66
2024/03/12 04:24:39;;;;;;;51.95;38.72;;;10.10;99.90;;;;;;2076830;28;20029;-65
2024/03/12 04:25:40;;;;;;;52.38;37.50;;;10.10;99.90;;;;;;2077174;28;20057;-66
2024/03/12 04:26:45;;;;;;;54.10;39.40;;;10.10;99.90;;;;;;2076573;28;20034;-65
2024/03/12 04:27:45;;;;;;;53.15;37.72;;;10.10;99.90;;;;;;2075614;28;20029;-65
2024/03/12 04:28:46;;;;;;;53.88;39.22;;;10.10;99.90;;;;;;2075957;28;20025;-67
2024/03/12 04:29:47;;;;;;;53.20;39.10;;;10.10;99.90;;;;;;2076751;28;20027;-65
2024/03/12 04:30:51;;;;;;;53.15;39.28;;;10.10;99.90;;;;;;2076953;28;20076;-65
2024/03/12 04:31:54;;;;;;;52.40;38.60;;;10.10;99.90;;;;;;2076173;28;20022;-65
2024/03/12 04:32:55;;;;;;;53.90;38.72;;;10.10;99.90;;;;;;2075978;28;20108;-65
2024/03/12 04:33:57;;;;;;;51.08;37.80;;;10.10;99.90;;;;;;2076302;28;20037;-66
2024/03/12 04:34:57;;;;;;;48.50;36.33;;;10.10;99.90;;;;;;2085576;28;20097;-65
2024/03/12 04:35:58;;;;;;;53.03;38.20;;;10.20;99.90;;;;;;2084885;28;20032;-66
2024/03/12 04:36:58;;;;;;;50.30;38.58;;;10.10;99.90;;;;;;2085098;28;20033;-66
2024/03/12 04:37:59;;;;;;;49.65;37.00;;;10.20;99.90;;;;;;2087462;28;20368;-66
2024/03/12 04:39:00;;;;;;;49.33;38.08;;;10.20;99.90;;;;;;2087827;28;20524;-65
2024/03/12 04:40:07;;;;;;;48.85;36.88;;;10.20;99.90;;;;;;2085803;28;20481;-65
2024/03/12 04:41:09;;;;;;;45.83;34.53;;;10.10;99.90;;;;;;2080668;28;20041;-65
2024/03/12 04:42:09;;;;;;;47.67;35.65;;;10.10;99.90;;;;;;2081663;28;20032;-65
2024/03/12 04:43:11;;;;;;;45.33;33.72;;;10.10;99.90;;;;;;2086241;28;20033;-67
2024/03/12 04:44:12;;;;;;;44.38;34.78;;;10.10;99.90;;;;;;2087810;28;20116;-66
2024/03/12 04:45:14;;;;;;;49.45;36.13;;;10.10;99.90;;;;;;2086797;28;20044;-66
2024/03/12 04:46:14;;;;;;;44.00;33.35;;;10.10;99.90;;;;;;2084729;28;20059;-65
2024/03/12 04:47:15;;;;;;;44.45;33.78;;;10.10;99.90;;;;;;2084827;28;20029;-66
2024/03/12 04:48:15;;;;;;;46.38;33.97;;;10.10;99.90;;;;;;2085550;28;20037;-65
2024/03/12 04:49:16;;;;;;;42.50;32.55;;;10.10;99.90;;;;;;2087109;28;20104;-66
2024/03/12 04:50:19;;;;;;;40.65;31.95;;;10.10;99.90;;;;;;2087215;28;20274;-66
2024/03/12 04:51:21;;;;;;;38.53;31.20;;;10.10;99.90;;;;;;2086976;28;20033;-66
2024/03/12 04:52:22;;;;;;;38.88;32.53;;;10.10;99.90;;;;;;2086445;28;20493;-67
2024/03/12 04:53:23;;;;;;;40.03;32.22;;;10.10;99.90;;;;;;2078258;28;20517;-66
2024/03/12 04:54:23;;;;;;;37.75;29.77;;;10.10;99.90;;;;;;2079757;28;20057;-66
2024/03/12 04:55:24;;;;;;;38.53;30.60;;;10.00;99.90;;;;;;2086445;28;20025;-65
2024/03/12 04:56:24;;;;;;;40.78;31.02;;;10.10;99.90;;;;;;2087165;28;20493;-65
2024/03/12 04:57:25;;;;;;;35.85;28.48;;;10.10;99.90;;;;;;2087538;28;20032;-66
2024/03/12 04:58:28;;;;;;;33.28;27.88;;;10.10;99.90;;;;;;2085714;28;20075;-66
2024/03/12 04:59:29;;;;;;;33.55;26.85;;;10.10;99.90;;;;;;2085820;28;20081;-67
2024/03/12 05:00:30;;;;;;;31.92;27.67;;;10.00;99.90;;;;;;2085733;28;20070;-66
2024/03/12 05:01:30;;;;;;;31.60;27.13;;;10.00;99.90;;;;;;2086686;28;20032;-65
2024/03/12 05:02:31;;;;;;;31.95;27.42;;;10.00;99.90;;;;;;2085530;28;20044;-66
2024/03/12 05:03:31;;;;;;;34.30;28.00;;;10.10;99.90;;;;;;2086266;28;20351;-66
2024/03/12 05:04:32;;;;;;;30.98;27.27;;;10.00;99.90;;;;;;2084905;28;20020;-66
2024/03/12 05:05:32;;;;;;;31.60;26.27;;;10.00;99.90;;;;;;2087390;28;20108;-64
2024/03/12 05:06:33;;;;;;;31.92;25.17;;;10.00;99.90;;;;;;2086752;28;20033;-66
2024/03/12 05:07:33;;;;;;;33.28;25.40;;;10.00;99.90;;;;;;2087184;28;20026;-66
2024/03/12 05:08:34;;;;;;;27.27;24.27;;;10.00;99.90;;;;;;2087239;28;20024;-65
2024/03/12 05:09:34;;;;;;;28.58;24.73;;;10.00;99.90;;;;;;2084728;28;20035;-65
2024/03/12 05:10:38;;;;;;;30.52;24.88;;;10.00;99.90;;;;;;2086278;28;20036;-66
2024/03/12 05:11:38;;;;;;;27.83;24.85;;;10.00;99.90;;;;;;2085983;28;20025;-65
2024/03/12 05:12:39;;;;;;;26.67;23.63;;;10.00;99.90;;;;;;2086149;28;20029;-67